createdAt,value
2022-09-29T04:31:08.198Z,368634.38
2022-09-29T04:32:08.141Z,368634.38
2022-09-29T04:33:08.152Z,368634.38
2022-09-29T04:34:08.112Z,368634.38
2022-09-29T04:35:08.098Z,368634.38
2022-09-29T04:36:08.090Z,368634.38
2022-09-29T04:37:08.061Z,368634.38
2022-09-29T04:38:08.050Z,368634.38
2022-09-29T04:39:08.030Z,368634.38
2022-09-29T04:40:08.149Z,368634.38
2022-09-29T04:41:08.034Z,368634.38
2022-09-29T04:42:08.000Z,368634.38
2022-09-29T04:43:07.989Z,368634.38
2022-09-29T04:44:07.988Z,368634.38
2022-09-29T04:45:15.013Z,368634.38
2022-09-29T04:46:08.090Z,368634.38
2022-09-29T04:47:07.951Z,368634.38
2022-09-29T04:48:07.921Z,368634.38
2022-09-29T04:49:07.918Z,368634.38
2022-09-29T04:50:07.900Z,368634.38
2022-09-29T04:51:07.881Z,368634.38
2022-09-29T04:52:07.890Z,368634.38
2022-09-29T04:53:07.890Z,368634.38
2022-09-29T04:54:07.841Z,368634.38
2022-09-29T04:55:07.828Z,368634.38
2022-09-29T04:56:07.838Z,368634.38
2022-09-29T04:57:07.811Z,368634.38
2022-09-29T04:58:07.799Z,368634.38
2022-09-29T04:59:07.812Z,368634.38
2022-09-29T05:00:07.771Z,368634.38
2022-09-29T05:01:07.878Z,368634.38
2022-09-29T05:02:07.826Z,368634.38
2022-09-29T05:03:07.729Z,368634.38
2022-09-29T05:04:07.732Z,368634.38
2022-09-29T05:05:07.749Z,368634.38
2022-09-29T05:06:07.707Z,368634.38
2022-09-29T05:07:07.701Z,368634.38
2022-09-29T05:08:07.657Z,368634.38
2022-09-29T05:09:07.646Z,368634.38
2022-09-29T05:10:07.644Z,368634.38
2022-09-29T05:11:07.620Z,368634.38
2022-09-29T05:12:07.628Z,368634.38
2022-09-29T05:13:07.595Z,368634.38
2022-09-29T05:14:07.586Z,368634.38
2022-09-29T05:15:07.567Z,368634.38
2022-09-29T05:16:07.668Z,368634.38
2022-09-29T05:17:07.555Z,368634.38
2022-09-29T05:18:07.526Z,368634.38
2022-09-29T05:19:07.506Z,368634.38
2022-09-29T05:20:07.506Z,368634.38
2022-09-29T05:22:08.657Z,368634.38
2022-09-29T05:23:07.466Z,368634.38
2022-09-29T05:24:07.453Z,368634.38
2022-09-29T05:25:07.436Z,368634.38
2022-09-29T05:26:07.424Z,368634.38
2022-09-29T05:27:07.425Z,368634.38
2022-09-29T05:28:08.396Z,368634.38
2022-09-29T05:29:07.383Z,368634.38
2022-09-29T05:30:07.373Z,368634.38
2022-09-29T05:31:07.615Z,368634.38
2022-09-29T05:32:07.364Z,368634.38
2022-09-29T05:33:07.373Z,368634.38
2022-09-29T05:34:07.324Z,368634.38
2022-09-29T05:35:07.315Z,368634.38
2022-09-29T05:36:07.294Z,368634.38
2022-09-29T05:37:07.292Z,368634.38
2022-09-29T05:38:07.292Z,368634.38
2022-09-29T05:39:07.252Z,368634.38
2022-09-29T05:40:07.243Z,368634.38
2022-09-29T05:41:07.225Z,368634.38
2022-09-29T05:42:07.246Z,368634.38
2022-09-29T05:43:07.219Z,368634.38
2022-09-29T05:44:07.191Z,368634.38
2022-09-29T05:45:07.170Z,368634.38
2022-09-29T05:46:07.226Z,368634.38
2022-09-29T05:47:07.161Z,368634.38
2022-09-29T05:48:07.132Z,368634.38
2022-09-29T05:49:07.121Z,368634.38
2022-09-29T05:50:07.117Z,368634.38
2022-09-29T05:51:07.089Z,368634.38
2022-09-29T05:52:08.078Z,368634.38
2022-09-29T05:53:07.061Z,368634.38
2022-09-29T05:54:07.061Z,368634.38
2022-09-29T05:55:07.041Z,368634.38
2022-09-29T05:56:07.078Z,368634.38
2022-09-29T05:57:07.007Z,368634.38
2022-09-29T05:58:06.998Z,368634.38
2022-09-29T05:59:06.986Z,368634.38
2022-09-29T06:00:06.977Z,368634.38
2022-09-29T06:01:06.970Z,368634.38
2022-09-29T06:02:07.041Z,368634.38
2022-09-29T06:03:06.930Z,368634.38
2022-09-29T06:04:06.917Z,368634.38
2022-09-29T06:05:06.907Z,368634.38
2022-09-29T06:06:06.896Z,368634.38
2022-09-29T06:07:06.895Z,368634.38
2022-09-29T06:08:06.867Z,368634.38
2022-09-29T06:09:06.855Z,368634.38
2022-09-29T06:10:06.836Z,368634.38
2022-09-29T06:11:06.834Z,368634.38
2022-09-29T06:12:06.868Z,368634.38
2022-09-29T06:13:06.817Z,368634.38
2022-09-29T06:14:06.793Z,368634.38
2022-09-29T06:15:06.787Z,368634.38
2022-09-29T06:16:06.810Z,368634.38
2022-09-29T06:17:06.756Z,368634.38
2022-09-29T06:18:06.745Z,368634.38
2022-09-29T06:19:06.725Z,368634.38
2022-09-29T06:20:06.714Z,368634.38
2022-09-29T06:21:06.703Z,368634.38
2022-09-29T06:22:06.692Z,368634.38
2022-09-29T06:23:06.682Z,368634.38
2022-09-29T06:24:06.654Z,368634.38
2022-09-29T06:25:06.644Z,368634.38
2022-09-29T06:26:06.632Z,368634.38
2022-09-29T06:27:06.632Z,368634.38
2022-09-29T06:28:06.602Z,368634.38
2022-09-29T06:29:06.594Z,368634.38
2022-09-29T06:30:06.572Z,368634.38
2022-09-29T06:31:06.570Z,368634.38
2022-09-29T06:32:06.617Z,368634.38
2022-09-29T06:33:06.544Z,368634.38
2022-09-29T06:34:06.522Z,368634.38
2022-09-29T06:35:06.512Z,368634.38
2022-09-29T06:36:06.521Z,368634.38
2022-09-29T06:37:06.511Z,368634.38
2022-09-29T06:38:06.480Z,368634.38
2022-09-29T06:39:06.465Z,368634.38
2022-09-29T06:40:10.753Z,368634.38
2022-09-29T06:41:06.516Z,368634.38
2022-09-29T06:42:06.435Z,368634.38
2022-09-29T06:43:06.418Z,368634.38
2022-09-29T06:44:06.393Z,368634.38
2022-09-29T06:45:06.381Z,368634.38
2022-09-29T06:46:06.414Z,368634.38
2022-09-29T06:47:06.396Z,368634.38
2022-09-29T06:48:06.339Z,368634.38
2022-09-29T06:49:06.330Z,368634.38
2022-09-29T06:50:07.906Z,368634.38
2022-09-29T06:51:10.169Z,368634.38
2022-09-29T06:52:19.022Z,368634.38
2022-09-29T06:53:07.279Z,368634.38
2022-09-29T06:54:11.988Z,368634.38
2022-09-29T06:55:07.259Z,368634.38
2022-09-29T06:56:06.239Z,368634.38
2022-09-29T06:57:06.247Z,368634.38
2022-09-29T06:58:06.228Z,368634.38
2022-09-29T06:59:06.198Z,368634.38
2022-09-29T07:00:06.199Z,368634.38
2022-09-29T07:01:06.270Z,368634.38
2022-09-29T07:02:06.245Z,368634.38
2022-09-29T07:03:06.155Z,368634.38
2022-09-29T07:04:06.127Z,368634.38
2022-09-29T07:05:06.117Z,368634.38
2022-09-29T07:06:19.200Z,368634.38
2022-09-29T07:07:07.106Z,368634.38
2022-09-29T07:08:06.076Z,368634.38
2022-09-29T07:09:06.076Z,368634.38
2022-09-29T07:10:06.055Z,368634.38
2022-09-29T07:11:06.043Z,368634.38
2022-09-29T07:12:06.035Z,368634.38
2022-09-29T07:13:06.015Z,368634.38
2022-09-29T07:14:06.005Z,368634.38
2022-09-29T07:15:05.993Z,368634.38
2022-09-29T07:16:06.013Z,368634.38
2022-09-29T07:17:05.974Z,368634.38
2022-09-29T07:18:05.952Z,368634.38
2022-09-29T07:19:05.944Z,368634.38
2022-09-29T07:20:05.923Z,368634.38
2022-09-29T07:21:05.914Z,368634.38
2022-09-29T07:22:05.909Z,368634.38
2022-09-29T07:23:05.883Z,368634.38
2022-09-29T07:24:05.873Z,368634.38
2022-09-29T07:25:05.864Z,368634.38
2022-09-29T07:26:05.843Z,368634.38
2022-09-29T07:27:05.848Z,368634.38
2022-09-29T07:28:05.814Z,368634.38
2022-09-29T07:29:05.803Z,368634.38
2022-09-29T07:30:05.800Z,368634.38
2022-09-29T07:31:12.978Z,368634.38
2022-09-29T07:32:08.603Z,368634.38
2022-09-29T07:33:05.779Z,368634.38
2022-09-29T07:34:05.751Z,368634.38
2022-09-29T07:35:05.733Z,368634.38
2022-09-29T07:36:05.719Z,368634.38
2022-09-29T07:37:05.711Z,368634.38
2022-09-29T07:38:05.682Z,368634.38
2022-09-29T07:39:05.674Z,368634.38
2022-09-29T07:40:05.661Z,368634.38
2022-09-29T07:41:05.807Z,368634.38
2022-09-29T07:42:09.174Z,368634.38
2022-09-29T07:43:05.631Z,368634.38
2022-09-29T07:44:05.602Z,368634.38
2022-09-29T07:45:05.610Z,368634.38
2022-09-29T07:46:05.678Z,368634.38
2022-09-29T07:47:05.567Z,368634.38
2022-09-29T07:48:05.569Z,368634.38
2022-09-29T07:49:05.540Z,368634.38
2022-09-29T07:50:05.529Z,368634.38
2022-09-29T07:51:05.531Z,368634.38
2022-09-29T07:52:05.506Z,368634.38
2022-09-29T07:53:05.501Z,368634.38
2022-09-29T07:54:05.481Z,368634.38
2022-09-29T07:55:05.461Z,368634.38
2022-09-29T07:56:05.452Z,368634.38
2022-09-29T07:57:05.438Z,368634.38
2022-09-29T07:58:05.447Z,368634.38
2022-09-29T07:59:05.407Z,368634.38
2022-09-29T08:00:05.397Z,368634.38
2022-09-29T08:01:05.477Z,368634.38
2022-09-29T08:02:05.399Z,368634.38
2022-09-29T08:03:05.368Z,368634.38
2022-09-29T08:04:05.348Z,368634.38
2022-09-29T08:05:07.673Z,368634.38
2022-09-29T08:06:05.320Z,368634.38
2022-09-29T08:07:05.309Z,368634.38
2022-09-29T08:08:05.307Z,368634.38
2022-09-29T08:09:05.589Z,368634.38
2022-09-29T08:10:15.320Z,368634.38
2022-09-29T08:11:06.254Z,368634.38
2022-09-29T08:12:08.315Z,368634.38
2022-09-29T08:13:05.236Z,368634.38
2022-09-29T08:14:05.211Z,368634.38
2022-09-29T08:15:05.196Z,368634.38
2022-09-29T08:16:05.199Z,368634.38
2022-09-29T08:17:05.253Z,368634.38
2022-09-29T08:18:05.167Z,368634.38
2022-09-29T08:19:05.161Z,368634.38
2022-09-29T08:20:05.140Z,368634.38
2022-09-29T08:21:05.117Z,368634.38
2022-09-29T08:22:05.107Z,368634.38
2022-09-29T08:23:05.126Z,368634.38
2022-09-29T08:24:05.077Z,368634.38
2022-09-29T08:25:05.056Z,368634.38
2022-09-29T08:26:05.047Z,368634.38
2022-09-29T08:27:14.644Z,368634.38
2022-09-29T08:28:06.046Z,368634.38
2022-09-29T08:29:08.506Z,368634.38
2022-09-29T08:30:04.996Z,368634.38
2022-09-29T08:31:04.990Z,368634.38
2022-09-29T08:32:05.029Z,368634.38
2022-09-29T08:33:04.964Z,368634.38
2022-09-29T08:34:04.943Z,368634.38
2022-09-29T08:35:04.926Z,368634.38
2022-09-29T08:36:04.922Z,368634.38
2022-09-29T08:37:04.906Z,368634.38
2022-09-29T08:38:04.903Z,368634.38
2022-09-29T08:39:04.879Z,368634.38
2022-09-29T08:40:04.867Z,368634.38
2022-09-29T08:41:04.906Z,368634.38
2022-09-29T08:42:04.854Z,368634.38
2022-09-29T08:43:04.842Z,368634.38
2022-09-29T08:44:04.842Z,368634.38
2022-09-29T08:45:14.910Z,368634.38
2022-09-29T08:46:05.856Z,368634.38
2022-09-29T08:47:10.589Z,368634.38
2022-09-29T08:48:16.837Z,368634.38
2022-09-29T08:49:05.743Z,368634.38
2022-09-29T08:50:04.734Z,368634.38
2022-09-29T08:51:04.724Z,368634.38
2022-09-29T08:52:15.770Z,368634.38
2022-09-29T08:53:06.169Z,368634.38
2022-09-29T08:54:04.729Z,368634.38
2022-09-29T08:55:16.332Z,368634.38
2022-09-29T08:56:05.659Z,368634.38
2022-09-29T08:57:04.633Z,368634.38
2022-09-29T08:58:04.643Z,368634.38
2022-09-29T08:59:04.617Z,368634.38
2022-09-29T09:00:04.604Z,368634.38
2022-09-29T09:01:04.631Z,368634.38
2022-09-29T09:02:04.621Z,368634.38
2022-09-29T09:03:04.571Z,368634.38
2022-09-29T09:04:04.551Z,368634.38
2022-09-29T09:05:04.531Z,368634.38
2022-09-29T09:06:04.529Z,368634.38
2022-09-29T09:07:04.502Z,368634.38
2022-09-29T09:08:04.561Z,368634.38
2022-09-29T09:09:04.471Z,368634.38
2022-09-29T09:10:04.491Z,368634.38
2022-09-29T09:11:04.461Z,368634.38
2022-09-29T09:12:04.441Z,368634.38
2022-09-29T09:13:04.442Z,368634.38
2022-09-29T09:14:04.411Z,368634.38
2022-09-29T09:15:04.399Z,368634.38
2022-09-29T09:16:04.391Z,368634.38
2022-09-29T09:17:04.423Z,368634.38
2022-09-29T09:18:04.418Z,368634.38
2022-09-29T09:19:05.229Z,368634.38
2022-09-29T09:20:04.340Z,368634.38
2022-09-29T09:21:04.319Z,368634.38
2022-09-29T09:22:04.311Z,368634.38
2022-09-29T09:23:04.301Z,368634.38
2022-09-29T09:24:04.291Z,368634.38
2022-09-29T09:25:04.271Z,368634.38
2022-09-29T09:26:04.259Z,368634.38
2022-09-29T09:27:04.239Z,368634.38
2022-09-29T09:28:04.249Z,368634.38
2022-09-29T09:29:04.210Z,368634.38
2022-09-29T09:30:04.213Z,368634.38
2022-09-29T09:31:04.298Z,368634.38
2022-09-29T09:32:04.179Z,368634.38
2022-09-29T09:33:04.166Z,368634.38
2022-09-29T09:34:06.569Z,368634.38
2022-09-29T09:35:19.596Z,368634.38
2022-09-29T09:36:05.119Z,368634.38
2022-09-29T09:37:08.214Z,368634.38
2022-09-29T09:38:04.109Z,368634.38
2022-09-29T09:39:04.080Z,368634.38
2022-09-29T09:40:04.069Z,368634.38
2022-09-29T09:41:04.057Z,368634.38
2022-09-29T09:42:04.056Z,368634.38
2022-09-29T09:43:04.033Z,368634.38
2022-09-29T09:44:04.023Z,368634.38
2022-09-29T09:45:03.996Z,368634.38
2022-09-29T09:46:04.036Z,368634.38
2022-09-29T09:47:03.969Z,368634.38
2022-09-29T09:48:03.970Z,368634.38
2022-09-29T09:49:03.939Z,368634.38
2022-09-29T09:50:03.931Z,368634.38
2022-09-29T09:51:03.937Z,368634.38
2022-09-29T09:52:03.986Z,368634.38
2022-09-29T09:53:03.899Z,368634.38
2022-09-29T09:54:03.881Z,368634.38
2022-09-29T09:55:03.859Z,368634.38
2022-09-29T09:56:03.849Z,368634.38
2022-09-29T09:57:03.838Z,368634.38
2022-09-29T09:58:03.849Z,368634.38
2022-09-29T09:59:03.830Z,368634.38
2022-09-29T10:00:03.894Z,368634.38
2022-09-29T10:01:03.894Z,368634.38
2022-09-29T10:02:03.827Z,368634.38
2022-09-29T10:03:03.790Z,368634.38
2022-09-29T10:04:03.763Z,368634.38
2022-09-29T10:05:07.537Z,368634.38
2022-09-29T10:06:04.727Z,368634.38
2022-09-29T10:07:03.744Z,368634.38
2022-09-29T10:08:03.722Z,368634.38
2022-09-29T10:09:03.754Z,368634.38
2022-09-29T10:10:03.679Z,368634.38
2022-09-29T10:11:03.658Z,368634.38
2022-09-29T10:12:03.648Z,368634.38
2022-09-29T10:13:03.629Z,368634.38
2022-09-29T10:14:03.640Z,368634.38
2022-09-29T10:15:03.608Z,368634.38
2022-09-29T10:16:03.592Z,368634.38
2022-09-29T10:17:03.625Z,368634.38
2022-09-29T10:18:03.569Z,368634.38
2022-09-29T10:19:03.575Z,368634.38
2022-09-29T10:20:03.540Z,368634.38
2022-09-29T10:21:03.519Z,368634.38
2022-09-29T10:22:03.520Z,368634.38
2022-09-29T10:23:03.491Z,368634.38
2022-09-29T10:24:03.499Z,368634.38
2022-09-29T10:25:03.469Z,368634.38
2022-09-29T10:26:03.461Z,368634.38
2022-09-29T10:27:03.450Z,368634.38
2022-09-29T10:28:03.430Z,368634.38
2022-09-29T10:29:03.430Z,368634.38
2022-09-29T10:30:03.399Z,368634.38
2022-09-29T10:31:03.461Z,368634.38
2022-09-29T10:32:03.380Z,368634.38
2022-09-29T10:33:03.372Z,368634.38
2022-09-29T10:34:03.360Z,368634.38
2022-09-29T10:35:03.340Z,368634.38
2022-09-29T10:36:03.320Z,368634.38
2022-09-29T10:37:03.310Z,368634.38
2022-09-29T10:38:03.303Z,368634.38
2022-09-29T10:39:03.833Z,368634.38
2022-09-29T10:40:03.280Z,368634.38
2022-09-29T10:41:03.281Z,368634.38
2022-09-29T10:42:03.241Z,368634.38
2022-09-29T10:43:03.232Z,368634.38
2022-09-29T10:44:03.243Z,368634.38
2022-09-29T10:45:55.128Z,770.62
2022-09-29T10:46:55.044Z,551.25
2022-09-29T10:47:55.044Z,315.00
2022-09-29T10:48:55.035Z,315.00
2022-09-29T10:49:55.014Z,230.62
2022-09-29T10:50:55.106Z,303.75
2022-09-29T10:51:54.993Z,2874.38
2022-09-29T10:52:54.974Z,2874.38
2022-09-29T10:53:55.017Z,2874.38
2022-09-29T10:54:54.944Z,196.88
2022-09-29T10:55:54.940Z,191.25
2022-09-29T10:56:54.933Z,191.25
2022-09-29T10:57:54.905Z,196.88
2022-09-29T10:59:00.469Z,708.75
2022-09-29T10:59:55.895Z,157.50
2022-09-29T11:00:54.959Z,157.50
2022-09-29T11:01:54.863Z,157.50
2022-09-29T11:02:54.848Z,168.75
2022-09-29T11:03:54.834Z,174.38
2022-09-29T11:04:54.824Z,180.00
2022-09-29T11:05:54.805Z,196.88
2022-09-29T11:06:54.795Z,241.88
2022-09-29T11:07:54.784Z,472.50
2022-09-29T11:08:54.795Z,2874.38
2022-09-29T11:09:54.769Z,2874.38
2022-09-29T11:10:54.765Z,2874.38
2022-09-29T11:12:00.056Z,2874.38
2022-09-29T11:12:55.717Z,2874.38
2022-09-29T11:13:54.705Z,2874.38
2022-09-29T11:14:54.698Z,2874.38
2022-09-29T11:15:54.715Z,2874.38
2022-09-29T11:16:54.741Z,2874.38
2022-09-29T11:17:54.683Z,2874.38
2022-09-29T11:18:54.653Z,2874.38
2022-09-29T11:19:54.658Z,2874.38
2022-09-29T11:20:54.618Z,2874.38
2022-09-29T11:21:54.607Z,2874.38
2022-09-29T11:22:54.589Z,2874.38
2022-09-29T11:23:54.575Z,2874.38
2022-09-29T11:24:54.568Z,2874.38
2022-09-29T11:25:54.554Z,2874.38
2022-09-29T11:26:54.537Z,399.38
2022-09-29T11:27:54.527Z,2874.38
2022-09-29T11:28:54.515Z,2874.38
2022-09-29T11:29:54.518Z,2874.38
2022-09-29T11:30:54.523Z,2874.38
2022-09-29T11:31:54.475Z,2874.38
2022-09-29T11:32:54.465Z,2874.38
2022-09-29T11:33:54.458Z,320.62
2022-09-29T11:34:54.459Z,2874.38
2022-09-29T11:35:54.427Z,2874.38
2022-09-29T11:36:54.448Z,2874.38
2022-09-29T11:37:54.398Z,2874.38
2022-09-29T11:38:54.378Z,2874.38
2022-09-29T11:39:54.397Z,2874.38
2022-09-29T11:40:54.348Z,2874.38
2022-09-29T11:41:54.350Z,2874.38
2022-09-29T11:42:54.338Z,2874.38
2022-09-29T11:43:54.319Z,2874.38
2022-09-29T11:44:54.319Z,2874.38
2022-09-29T11:45:54.364Z,2874.38
2022-09-29T11:46:54.284Z,2874.38
2022-09-29T11:47:54.269Z,2874.38
2022-09-29T11:48:54.295Z,2874.38
2022-09-29T11:49:54.277Z,2874.38
2022-09-29T11:50:54.230Z,2874.38
2022-09-29T11:51:54.231Z,2874.38
2022-09-29T11:52:54.210Z,2874.38
2022-09-29T11:53:54.200Z,376.88
2022-09-29T11:54:54.191Z,410.62
2022-09-29T11:55:54.183Z,2874.38
2022-09-29T11:56:54.168Z,770.62
2022-09-29T11:57:54.151Z,556.88
2022-09-29T11:58:54.134Z,343.12
2022-09-29T11:59:54.132Z,371.25
2022-09-29T12:00:54.123Z,258.75
2022-09-29T12:01:54.100Z,247.50
2022-09-29T12:02:54.226Z,303.75
2022-09-29T12:03:54.072Z,787.50
2022-09-29T12:04:54.071Z,213.75
2022-09-29T12:05:54.050Z,168.75
2022-09-29T12:06:54.032Z,157.50
2022-09-29T12:07:54.022Z,151.88
2022-09-29T12:08:54.006Z,157.50
2022-09-29T12:09:54.009Z,157.50
2022-09-29T12:10:53.986Z,168.75
2022-09-29T12:12:18.989Z,185.62
2022-09-29T12:12:54.953Z,202.50
2022-09-29T12:13:53.950Z,230.62
2022-09-29T12:14:53.942Z,331.88
2022-09-29T12:15:53.922Z,1383.75
2022-09-29T12:16:53.962Z,2874.38
2022-09-29T12:17:53.893Z,2874.38
2022-09-29T12:18:53.873Z,2874.38
2022-09-29T12:19:53.871Z,2874.38
2022-09-29T12:20:53.862Z,2874.38
2022-09-29T12:21:53.842Z,2874.38
2022-09-29T12:22:53.845Z,2874.38
2022-09-29T12:23:53.827Z,2874.38
2022-09-29T12:24:53.803Z,2874.38
2022-09-29T12:25:53.805Z,2874.38
2022-09-29T12:26:53.775Z,2874.38
2022-09-29T12:27:53.771Z,2874.38
2022-09-29T12:28:53.755Z,2874.38
2022-09-29T12:29:53.747Z,309.38
2022-09-29T12:30:53.775Z,337.50
2022-09-29T12:31:53.714Z,742.50
2022-09-29T12:32:53.694Z,680.62
2022-09-29T12:33:53.693Z,1119.38
2022-09-29T12:34:53.675Z,286.88
2022-09-29T12:35:53.685Z,2874.38
2022-09-29T12:36:53.667Z,2874.38
2022-09-29T12:37:53.649Z,2874.38
2022-09-29T12:38:53.625Z,2874.38
2022-09-29T12:39:53.615Z,2874.38
2022-09-29T12:40:53.616Z,2874.38
2022-09-29T12:41:54.265Z,2874.38
2022-09-29T12:42:53.576Z,2874.38
2022-09-29T12:43:53.576Z,2874.38
2022-09-29T12:44:53.552Z,2874.38
2022-09-29T12:45:53.600Z,2874.38
2022-09-29T12:46:53.547Z,2874.38
2022-09-29T12:47:53.527Z,2874.38
2022-09-29T12:48:53.496Z,2874.38
2022-09-29T12:49:53.496Z,2874.38
2022-09-29T12:50:53.485Z,2874.38
2022-09-29T12:51:53.467Z,2874.38
2022-09-29T12:52:53.452Z,2874.38
2022-09-29T12:53:53.448Z,2874.38
2022-09-29T12:54:53.428Z,2874.38
2022-09-29T12:55:53.430Z,2874.38
2022-09-29T12:56:53.406Z,2874.38
2022-09-29T12:57:53.389Z,2874.38
2022-09-29T12:58:53.378Z,523.12
2022-09-29T12:59:53.370Z,1366.88
2022-09-29T13:00:53.367Z,2874.38
2022-09-29T13:01:53.339Z,2874.38
2022-09-29T13:02:53.330Z,2874.38
2022-09-29T13:03:53.319Z,2874.38
2022-09-29T13:04:53.299Z,2874.38
2022-09-29T13:05:53.310Z,2874.38
2022-09-29T13:06:53.269Z,2874.38
2022-09-29T13:07:53.269Z,309.38
2022-09-29T13:08:53.250Z,219.38
2022-09-29T13:09:53.248Z,191.25
2022-09-29T13:10:53.243Z,180.00
2022-09-29T13:11:53.220Z,168.75
2022-09-29T13:12:53.203Z,180.00
2022-09-29T13:13:53.208Z,208.12
2022-09-29T13:14:53.178Z,652.50
2022-09-29T13:15:53.201Z,180.00
2022-09-29T13:16:53.151Z,163.12
2022-09-29T13:17:53.148Z,163.12
2022-09-29T13:19:00.229Z,168.75
2022-09-29T13:19:57.879Z,174.38
2022-09-29T13:20:53.123Z,191.25
2022-09-29T13:21:53.094Z,196.88
2022-09-29T13:22:53.081Z,196.88
2022-09-29T13:23:53.070Z,219.38
2022-09-29T13:24:53.060Z,230.62
2022-09-29T13:25:53.053Z,241.88
2022-09-29T13:26:53.021Z,270.00
2022-09-29T13:27:53.012Z,585.00
2022-09-29T13:28:53.002Z,286.88
2022-09-29T13:29:52.991Z,253.12
2022-09-29T13:30:53.040Z,236.25
2022-09-29T13:31:52.964Z,230.62
2022-09-29T13:32:52.954Z,230.62
2022-09-29T13:33:52.941Z,241.88
2022-09-29T13:34:52.924Z,264.38
2022-09-29T13:35:52.911Z,354.38
2022-09-29T13:36:52.912Z,382.50
2022-09-29T13:37:52.893Z,2874.38
2022-09-29T13:38:52.873Z,2874.38
2022-09-29T13:39:52.863Z,337.50
2022-09-29T13:40:52.843Z,680.62
2022-09-29T13:41:52.847Z,545.62
2022-09-29T13:42:52.822Z,298.12
2022-09-29T13:43:52.810Z,2874.38
2022-09-29T13:44:52.812Z,388.12
2022-09-29T13:45:52.837Z,225.00
2022-09-29T13:46:52.773Z,208.12
2022-09-29T13:47:52.762Z,196.88
2022-09-29T13:48:52.747Z,202.50
2022-09-29T13:49:52.741Z,196.88
2022-09-29T13:50:52.739Z,191.25
2022-09-29T13:51:52.726Z,191.25
2022-09-29T13:52:52.693Z,191.25
2022-09-29T13:53:52.683Z,202.50
2022-09-29T13:54:52.665Z,258.75
2022-09-29T13:55:52.682Z,635.62
2022-09-29T13:56:52.643Z,703.12
2022-09-29T13:57:52.727Z,680.62
2022-09-29T13:58:52.612Z,669.38
2022-09-29T13:59:52.615Z,663.75
2022-09-29T14:00:52.591Z,652.50
2022-09-29T14:01:52.599Z,652.50
2022-09-29T14:02:52.603Z,646.88
2022-09-29T14:03:52.595Z,635.62
2022-09-29T14:04:52.535Z,635.62
2022-09-29T14:05:52.533Z,635.62
2022-09-29T14:06:52.524Z,635.62
2022-09-29T14:07:52.525Z,624.38
2022-09-29T14:08:52.484Z,607.50
2022-09-29T14:09:52.559Z,590.62
2022-09-29T14:10:52.465Z,573.75
2022-09-29T14:11:52.473Z,568.12
2022-09-29T14:12:53.697Z,562.50
2022-09-29T14:13:52.435Z,540.00
2022-09-29T14:14:52.435Z,551.25
2022-09-29T14:15:52.452Z,523.12
2022-09-29T14:16:52.413Z,264.38
2022-09-29T14:17:52.387Z,258.75
2022-09-29T14:18:52.367Z,540.00
2022-09-29T14:19:52.368Z,590.62
2022-09-29T14:20:52.362Z,590.62
2022-09-29T14:21:52.346Z,568.12
2022-09-29T14:22:52.329Z,568.12
2022-09-29T14:23:52.308Z,568.12
2022-09-29T14:24:52.297Z,568.12
2022-09-29T14:25:52.288Z,573.75
2022-09-29T14:26:52.286Z,585.00
2022-09-29T14:27:52.266Z,585.00
2022-09-29T14:28:52.247Z,163.12
2022-09-29T14:29:52.237Z,151.88
2022-09-29T14:30:52.272Z,146.25
2022-09-29T14:31:52.218Z,140.62
2022-09-29T14:32:52.188Z,135.00
2022-09-29T14:33:52.189Z,129.38
2022-09-29T14:34:52.169Z,123.75
2022-09-29T14:35:52.159Z,123.75
2022-09-29T14:36:52.159Z,129.38
2022-09-29T14:37:52.141Z,129.38
2022-09-29T14:39:14.347Z,129.38
2022-09-29T14:39:53.109Z,129.38
2022-09-29T14:40:52.090Z,129.38
2022-09-29T14:41:52.109Z,129.38
2022-09-29T14:42:52.088Z,129.38
2022-09-29T14:43:52.059Z,129.38
2022-09-29T14:44:52.046Z,135.00
2022-09-29T14:45:52.082Z,123.75
2022-09-29T14:46:52.028Z,123.75
2022-09-29T14:48:51.999Z,118.12
2022-09-29T14:49:51.979Z,922.50
2022-09-29T14:50:51.968Z,2874.38
2022-09-29T14:51:51.972Z,2874.38
2022-09-29T14:52:51.951Z,2874.38
2022-09-29T14:53:51.929Z,2874.38
2022-09-29T14:54:51.918Z,2874.38
2022-09-29T14:55:51.911Z,2874.38
2022-09-29T14:56:51.924Z,2874.38
2022-09-29T14:57:51.882Z,2874.38
2022-09-29T14:58:51.870Z,855.00
2022-09-29T14:59:51.849Z,416.25
2022-09-29T15:00:51.839Z,1012.50
2022-09-29T15:01:51.840Z,2874.38
2022-09-29T15:02:59.946Z,2874.38
2022-09-29T15:03:52.960Z,2874.38
2022-09-29T15:04:51.790Z,2874.38
2022-09-29T15:05:51.779Z,2874.38
2022-09-29T15:06:51.771Z,2874.38
2022-09-29T15:07:51.750Z,2874.38
2022-09-29T15:08:51.740Z,2874.38
2022-09-29T15:09:51.732Z,2874.38
2022-09-29T15:10:51.711Z,2874.38
2022-09-29T15:11:51.716Z,2874.38
2022-09-29T15:12:51.681Z,2874.38
2022-09-29T15:13:51.683Z,2874.38
2022-09-29T15:14:51.661Z,2874.38
2022-09-29T15:15:51.669Z,2874.38
2022-09-29T15:16:51.653Z,2874.38
2022-09-29T15:17:51.630Z,2874.38
2022-09-29T15:18:51.613Z,1423.12
2022-09-29T15:19:55.577Z,1383.75
2022-09-29T15:20:51.592Z,1400.62
2022-09-29T15:21:51.664Z,1366.88
2022-09-29T15:22:51.563Z,1282.50
2022-09-29T15:23:51.553Z,1293.75
2022-09-29T15:24:51.543Z,1276.88
2022-09-29T15:25:51.597Z,1220.62
2022-09-29T15:26:51.524Z,1186.88
2022-09-29T15:27:51.504Z,1153.12
2022-09-29T15:28:51.492Z,1096.88
2022-09-29T15:29:51.509Z,1080.00
2022-09-29T15:30:51.509Z,1085.62
2022-09-29T15:31:51.474Z,135.00
2022-09-29T15:32:51.442Z,129.38
2022-09-29T15:33:51.436Z,163.12
2022-09-29T15:34:53.905Z,129.38
2022-09-29T15:35:51.405Z,129.38
2022-09-29T15:36:51.395Z,135.00
2022-09-29T15:37:51.385Z,157.50
2022-09-29T15:38:51.365Z,770.62
2022-09-29T15:39:51.376Z,933.75
2022-09-29T15:40:51.347Z,984.38
2022-09-29T15:41:51.349Z,1040.62
2022-09-29T15:42:51.314Z,984.38
2022-09-29T15:43:51.315Z,916.88
2022-09-29T15:44:51.285Z,911.25
2022-09-29T15:45:51.304Z,860.62
2022-09-29T15:46:51.276Z,686.25
2022-09-29T15:47:51.258Z,860.62
2022-09-29T15:48:51.236Z,900.00
2022-09-29T15:49:51.313Z,928.12
2022-09-29T15:50:51.217Z,939.38
2022-09-29T15:51:51.217Z,911.25
2022-09-29T15:52:51.218Z,888.75
2022-09-29T15:53:51.176Z,866.25
2022-09-29T15:54:51.168Z,843.75
2022-09-29T15:55:51.149Z,832.50
2022-09-29T15:56:51.147Z,815.62
2022-09-29T15:57:51.138Z,815.62
2022-09-29T15:58:51.107Z,826.88
2022-09-29T15:59:51.192Z,855.00
2022-09-29T16:00:51.087Z,855.00
2022-09-29T16:01:51.119Z,804.38
2022-09-29T16:02:51.112Z,810.00
2022-09-29T16:03:51.048Z,781.88
2022-09-29T16:04:51.039Z,793.12
2022-09-29T16:05:51.027Z,810.00
2022-09-29T16:06:51.017Z,787.50
2022-09-29T16:07:51.000Z,748.12
2022-09-29T16:08:50.988Z,697.50
2022-09-29T16:09:51.091Z,675.00
2022-09-29T16:10:50.960Z,675.00
2022-09-29T16:11:50.968Z,663.75
2022-09-29T16:12:50.941Z,652.50
2022-09-29T16:13:50.939Z,635.62
2022-09-29T16:14:50.909Z,607.50
2022-09-29T16:15:50.942Z,556.88
2022-09-29T16:16:50.920Z,478.12
2022-09-29T16:17:50.888Z,275.62
2022-09-29T16:18:50.858Z,157.50
2022-09-29T16:19:50.897Z,146.25
2022-09-29T16:20:50.835Z,129.38
2022-09-29T16:21:50.954Z,129.38
2022-09-29T16:22:50.819Z,123.75